sensor_id;sensor_type;location;lat;lon;timestamp;P1;durP1;ratioP1;P2;durP2;ratioP2
16450;SDS011;12243;42.708;23.310;2023-03-31T00:01:17;11.67;;;8.57;;
16450;SDS011;12243;42.708;23.310;2023-03-31T00:03:49;14.17;;;8.20;;
16450;SDS011;12243;42.708;23.310;2023-03-31T00:06:16;12.27;;;8.20;;
16450;SDS011;12243;42.708;23.310;2023-03-31T00:08:43;10.63;;;8.03;;
16450;SDS011;12243;42.708;23.310;2023-03-31T00:11:11;12.57;;;8.07;;
16450;SDS011;12243;42.708;23.310;2023-03-31T00:13:38;11.23;;;8.17;;
16450;SDS011;12243;42.708;23.310;2023-03-31T00:16:07;15.20;;;9.20;;
16450;SDS011;12243;42.708;23.310;2023-03-31T00:18:35;21.40;;;12.20;;
16450;SDS011;12243;42.708;23.310;2023-03-31T00:21:07;25.30;;;13.70;;
16450;SDS011;12243;42.708;23.310;2023-03-31T00:23:38;23.30;;;13.77;;
16450;SDS011;12243;42.708;23.310;2023-03-31T00:26:06;25.20;;;15.20;;
16450;SDS011;12243;42.708;23.310;2023-03-31T00:28:33;24.07;;;14.13;;
16450;SDS011;12243;42.708;23.310;2023-03-31T00:31:00;23.00;;;14.80;;
16450;SDS011;12243;42.708;23.310;2023-03-31T00:33:27;25.00;;;15.17;;
16450;SDS011;12243;42.708;23.310;2023-03-31T00:35:55;22.93;;;13.67;;
16450;SDS011;12243;42.708;23.310;2023-03-31T00:38:27;24.23;;;13.17;;
16450;SDS011;12243;42.708;23.310;2023-03-31T00:40:55;20.83;;;13.00;;
16450;SDS011;12243;42.708;23.310;2023-03-31T00:43:26;22.30;;;13.10;;
16450;SDS011;12243;42.708;23.310;2023-03-31T00:45:59;19.40;;;12.23;;
16450;SDS011;12243;42.708;23.310;2023-03-31T00:48:33;21.87;;;12.70;;
16450;SDS011;12243;42.708;23.310;2023-03-31T00:51:03;23.87;;;12.83;;
16450;SDS011;12243;42.708;23.310;2023-03-31T00:53:34;18.33;;;11.97;;
16450;SDS011;12243;42.708;23.310;2023-03-31T00:56:04;20.37;;;11.93;;
16450;SDS011;12243;42.708;23.310;2023-03-31T00:58:35;17.87;;;11.43;;
16450;SDS011;12243;42.708;23.310;2023-03-31T01:01:08;18.33;;;12.33;;
16450;SDS011;12243;42.708;23.310;2023-03-31T01:03:40;21.93;;;11.63;;
16450;SDS011;12243;42.708;23.310;2023-03-31T01:06:11;16.60;;;10.37;;
16450;SDS011;12243;42.708;23.310;2023-03-31T01:08:44;16.17;;;10.23;;
16450;SDS011;12243;42.708;23.310;2023-03-31T01:11:14;16.27;;;8.60;;
16450;SDS011;12243;42.708;23.310;2023-03-31T01:13:44;14.67;;;9.23;;
16450;SDS011;12243;42.708;23.310;2023-03-31T01:16:14;12.13;;;9.30;;
16450;SDS011;12243;42.708;23.310;2023-03-31T01:18:41;18.20;;;10.53;;
16450;SDS011;12243;42.708;23.310;2023-03-31T01:27:38;14.73;;;9.23;;
16450;SDS011;12243;42.708;23.310;2023-03-31T01:33:44;13.20;;;8.30;;
16450;SDS011;12243;42.708;23.310;2023-03-31T01:42:41;16.97;;;7.73;;
16450;SDS011;12243;42.708;23.310;2023-03-31T01:45:18;11.17;;;7.60;;
16450;SDS011;12243;42.708;23.310;2023-03-31T01:47:54;10.10;;;7.60;;
16450;SDS011;12243;42.708;23.310;2023-03-31T01:50:25;11.03;;;7.77;;
16450;SDS011;12243;42.708;23.310;2023-03-31T01:52:55;15.03;;;7.20;;
16450;SDS011;12243;42.708;23.310;2023-03-31T01:55:34;8.67;;;6.87;;
16450;SDS011;12243;42.708;23.310;2023-03-31T01:58:04;11.80;;;6.50;;
16450;SDS011;12243;42.708;23.310;2023-03-31T02:00:39;12.47;;;7.67;;
16450;SDS011;12243;42.708;23.310;2023-03-31T02:03:13;9.97;;;6.97;;
16450;SDS011;12243;42.708;23.310;2023-03-31T02:05:45;12.93;;;6.73;;
16450;SDS011;12243;42.708;23.310;2023-03-31T02:08:15;13.37;;;6.77;;
16450;SDS011;12243;42.708;23.310;2023-03-31T02:10:48;10.03;;;7.10;;
16450;SDS011;12243;42.708;23.310;2023-03-31T02:13:18;9.77;;;6.17;;
16450;SDS011;12243;42.708;23.310;2023-03-31T02:15:48;16.30;;;7.40;;
16450;SDS011;12243;42.708;23.310;2023-03-31T02:18:19;10.40;;;6.87;;
16450;SDS011;12243;42.708;23.310;2023-03-31T02:20:51;11.83;;;7.30;;
16450;SDS011;12243;42.708;23.310;2023-03-31T02:23:22;11.40;;;7.03;;
16450;SDS011;12243;42.708;23.310;2023-03-31T02:25:56;10.03;;;6.70;;
16450;SDS011;12243;42.708;23.310;2023-03-31T02:28:26;10.13;;;6.97;;
16450;SDS011;12243;42.708;23.310;2023-03-31T02:30:58;9.70;;;6.87;;
16450;SDS011;12243;42.708;23.310;2023-03-31T02:33:32;15.00;;;7.77;;
16450;SDS011;12243;42.708;23.310;2023-03-31T02:35:59;11.10;;;6.80;;
16450;SDS011;12243;42.708;23.310;2023-03-31T02:38:27;16.83;;;10.20;;
16450;SDS011;12243;42.708;23.310;2023-03-31T02:40:59;15.90;;;8.60;;
16450;SDS011;12243;42.708;23.310;2023-03-31T02:43:26;14.87;;;8.73;;
16450;SDS011;12243;42.708;23.310;2023-03-31T02:45:53;15.73;;;8.80;;
16450;SDS011;12243;42.708;23.310;2023-03-31T02:48:21;16.83;;;9.47;;
16450;SDS011;12243;42.708;23.310;2023-03-31T02:50:59;14.97;;;9.40;;
16450;SDS011;12243;42.708;23.310;2023-03-31T02:53:42;16.33;;;9.30;;
16450;SDS011;12243;42.708;23.310;2023-03-31T02:56:33;13.37;;;8.93;;
16450;SDS011;12243;42.708;23.310;2023-03-31T02:59:18;12.53;;;8.40;;
16450;SDS011;12243;42.708;23.310;2023-03-31T03:02:02;14.83;;;5.70;;
16450;SDS011;12243;42.708;23.310;2023-03-31T03:04:52;4.57;;;4.17;;
16450;SDS011;12243;42.708;23.310;2023-03-31T03:07:35;8.90;;;4.93;;
16450;SDS011;12243;42.708;23.310;2023-03-31T03:10:11;6.43;;;4.40;;
16450;SDS011;12243;42.708;23.310;2023-03-31T03:12:47;6.03;;;3.57;;
16450;SDS011;12243;42.708;23.310;2023-03-31T03:15:17;6.03;;;3.73;;
16450;SDS011;12243;42.708;23.310;2023-03-31T03:17:50;7.33;;;3.80;;
16450;SDS011;12243;42.708;23.310;2023-03-31T03:20:18;8.10;;;3.37;;
16450;SDS011;12243;42.708;23.310;2023-03-31T03:22:46;6.50;;;3.40;;
16450;SDS011;12243;42.708;23.310;2023-03-31T03:25:14;7.50;;;3.33;;
16450;SDS011;12243;42.708;23.310;2023-03-31T03:27:42;5.60;;;3.50;;
16450;SDS011;12243;42.708;23.310;2023-03-31T03:30:12;13.10;;;5.57;;
16450;SDS011;12243;42.708;23.310;2023-03-31T03:32:39;7.90;;;4.60;;
16450;SDS011;12243;42.708;23.310;2023-03-31T03:35:07;7.87;;;5.07;;
16450;SDS011;12243;42.708;23.310;2023-03-31T03:37:35;5.90;;;4.00;;
16450;SDS011;12243;42.708;23.310;2023-03-31T03:40:02;7.53;;;3.33;;
16450;SDS011;12243;42.708;23.310;2023-03-31T03:42:30;3.47;;;2.93;;
16450;SDS011;12243;42.708;23.310;2023-03-31T03:44:56;6.30;;;3.60;;
16450;SDS011;12243;42.708;23.310;2023-03-31T03:47:25;8.50;;;4.77;;
16450;SDS011;12243;42.708;23.310;2023-03-31T03:49:52;7.13;;;4.20;;
16450;SDS011;12243;42.708;23.310;2023-03-31T03:52:19;5.50;;;4.27;;
16450;SDS011;12243;42.708;23.310;2023-03-31T03:54:46;11.47;;;4.30;;
16450;SDS011;12243;42.708;23.310;2023-03-31T03:57:13;7.43;;;4.83;;
16450;SDS011;12243;42.708;23.310;2023-03-31T03:59:40;9.23;;;4.83;;
16450;SDS011;12243;42.708;23.310;2023-03-31T04:02:07;8.67;;;4.70;;
16450;SDS011;12243;42.708;23.310;2023-03-31T04:04:35;6.20;;;4.43;;
16450;SDS011;12243;42.708;23.310;2023-03-31T04:07:02;6.40;;;4.20;;
16450;SDS011;12243;42.708;23.310;2023-03-31T04:09:29;6.43;;;4.33;;
16450;SDS011;12243;42.708;23.310;2023-03-31T04:11:57;5.93;;;4.00;;
16450;SDS011;12243;42.708;23.310;2023-03-31T04:14:24;7.50;;;3.97;;
16450;SDS011;12243;42.708;23.310;2023-03-31T04:16:51;9.77;;;4.17;;
16450;SDS011;12243;42.708;23.310;2023-03-31T04:19:20;10.07;;;4.03;;
16450;SDS011;12243;42.708;23.310;2023-03-31T04:21:51;9.40;;;3.90;;
16450;SDS011;12243;42.708;23.310;2023-03-31T04:24:26;8.60;;;4.37;;
16450;SDS011;12243;42.708;23.310;2023-03-31T04:26:57;7.83;;;4.27;;
16450;SDS011;12243;42.708;23.310;2023-03-31T04:29:24;9.57;;;3.93;;
16450;SDS011;12243;42.708;23.310;2023-03-31T04:31:52;8.17;;;4.70;;
16450;SDS011;12243;42.708;23.310;2023-03-31T04:34:23;9.23;;;3.90;;
16450;SDS011;12243;42.708;23.310;2023-03-31T04:37:01;7.43;;;4.03;;
16450;SDS011;12243;42.708;23.310;2023-03-31T04:39:28;5.93;;;3.90;;
16450;SDS011;12243;42.708;23.310;2023-03-31T04:41:56;10.27;;;4.00;;
16450;SDS011;12243;42.708;23.310;2023-03-31T04:44:24;5.97;;;3.93;;
16450;SDS011;12243;42.708;23.310;2023-03-31T04:46:51;8.90;;;4.50;;
16450;SDS011;12243;42.708;23.310;2023-03-31T04:49:18;12.73;;;7.33;;
16450;SDS011;12243;42.708;23.310;2023-03-31T04:51:45;11.03;;;7.30;;
16450;SDS011;12243;42.708;23.310;2023-03-31T04:54:13;9.83;;;7.30;;
16450;SDS011;12243;42.708;23.310;2023-03-31T04:56:40;10.93;;;5.63;;
16450;SDS011;12243;42.708;23.310;2023-03-31T04:59:07;12.73;;;5.93;;
16450;SDS011;12243;42.708;23.310;2023-03-31T05:01:35;10.87;;;5.87;;
16450;SDS011;12243;42.708;23.310;2023-03-31T05:04:02;9.57;;;7.27;;
16450;SDS011;12243;42.708;23.310;2023-03-31T05:06:30;13.70;;;8.00;;
16450;SDS011;12243;42.708;23.310;2023-03-31T05:08:57;9.67;;;7.90;;
16450;SDS011;12243;42.708;23.310;2023-03-31T05:11:26;10.53;;;6.67;;
16450;SDS011;12243;42.708;23.310;2023-03-31T05:13:53;10.27;;;6.93;;
16450;SDS011;12243;42.708;23.310;2023-03-31T05:16:20;13.93;;;7.97;;
16450;SDS011;12243;42.708;23.310;2023-03-31T05:18:47;11.03;;;6.80;;
16450;SDS011;12243;42.708;23.310;2023-03-31T05:21:14;11.90;;;6.70;;
16450;SDS011;12243;42.708;23.310;2023-03-31T05:23:43;9.83;;;6.47;;
16450;SDS011;12243;42.708;23.310;2023-03-31T05:26:11;11.83;;;5.80;;
16450;SDS011;12243;42.708;23.310;2023-03-31T05:28:40;11.03;;;6.27;;
16450;SDS011;12243;42.708;23.310;2023-03-31T05:31:07;9.50;;;5.53;;
16450;SDS011;12243;42.708;23.310;2023-03-31T05:33:35;10.77;;;4.70;;
16450;SDS011;12243;42.708;23.310;2023-03-31T05:36:05;10.50;;;6.17;;
16450;SDS011;12243;42.708;23.310;2023-03-31T05:38:32;12.17;;;6.07;;
16450;SDS011;12243;42.708;23.310;2023-03-31T05:41:00;12.93;;;6.03;;
16450;SDS011;12243;42.708;23.310;2023-03-31T05:43:27;15.17;;;7.27;;
16450;SDS011;12243;42.708;23.310;2023-03-31T05:45:55;14.13;;;7.17;;
16450;SDS011;12243;42.708;23.310;2023-03-31T05:48:22;14.47;;;7.43;;
16450;SDS011;12243;42.708;23.310;2023-03-31T05:50:49;9.00;;;6.50;;
16450;SDS011;12243;42.708;23.310;2023-03-31T05:53:16;11.13;;;5.67;;
16450;SDS011;12243;42.708;23.310;2023-03-31T05:55:43;9.10;;;4.37;;
16450;SDS011;12243;42.708;23.310;2023-03-31T05:58:10;10.27;;;6.40;;
16450;SDS011;12243;42.708;23.310;2023-03-31T06:00:37;18.17;;;7.90;;
16450;SDS011;12243;42.708;23.310;2023-03-31T06:03:05;10.70;;;6.57;;
16450;SDS011;12243;42.708;23.310;2023-03-31T06:05:33;17.20;;;7.80;;
16450;SDS011;12243;42.708;23.310;2023-03-31T06:08:00;17.37;;;7.03;;
16450;SDS011;12243;42.708;23.310;2023-03-31T06:10:28;9.23;;;6.40;;
16450;SDS011;12243;42.708;23.310;2023-03-31T06:12:55;13.00;;;6.73;;
16450;SDS011;12243;42.708;23.310;2023-03-31T06:15:22;16.43;;;6.37;;
16450;SDS011;12243;42.708;23.310;2023-03-31T06:17:49;15.57;;;6.00;;
16450;SDS011;12243;42.708;23.310;2023-03-31T06:20:17;19.07;;;9.07;;
16450;SDS011;12243;42.708;23.310;2023-03-31T06:22:44;28.07;;;9.13;;
16450;SDS011;12243;42.708;23.310;2023-03-31T06:25:11;22.67;;;9.33;;
16450;SDS011;12243;42.708;23.310;2023-03-31T06:27:38;14.90;;;8.40;;
16450;SDS011;12243;42.708;23.310;2023-03-31T06:30:06;18.50;;;7.37;;
16450;SDS011;12243;42.708;23.310;2023-03-31T06:32:34;14.30;;;6.60;;
16450;SDS011;12243;42.708;23.310;2023-03-31T06:35:01;7.93;;;3.10;;
16450;SDS011;12243;42.708;23.310;2023-03-31T06:37:29;10.67;;;2.60;;
16450;SDS011;12243;42.708;23.310;2023-03-31T06:39:56;8.03;;;3.30;;
16450;SDS011;12243;42.708;23.310;2023-03-31T06:42:22;6.47;;;3.57;;
16450;SDS011;12243;42.708;23.310;2023-03-31T06:44:50;4.97;;;2.80;;
16450;SDS011;12243;42.708;23.310;2023-03-31T06:47:17;3.20;;;2.33;;
16450;SDS011;12243;42.708;23.310;2023-03-31T06:49:43;5.40;;;2.40;;
16450;SDS011;12243;42.708;23.310;2023-03-31T06:52:10;3.47;;;2.47;;
16450;SDS011;12243;42.708;23.310;2023-03-31T06:54:39;5.03;;;2.50;;
16450;SDS011;12243;42.708;23.310;2023-03-31T06:57:06;6.70;;;2.80;;
16450;SDS011;12243;42.708;23.310;2023-03-31T06:59:33;5.73;;;2.70;;
16450;SDS011;12243;42.708;23.310;2023-03-31T07:02:00;7.63;;;2.57;;
16450;SDS011;12243;42.708;23.310;2023-03-31T07:04:27;7.10;;;2.33;;
16450;SDS011;12243;42.708;23.310;2023-03-31T07:06:54;3.40;;;2.40;;
16450;SDS011;12243;42.708;23.310;2023-03-31T07:09:23;8.37;;;2.83;;
16450;SDS011;12243;42.708;23.310;2023-03-31T07:11:51;7.17;;;3.10;;
16450;SDS011;12243;42.708;23.310;2023-03-31T07:14:18;7.03;;;3.20;;
16450;SDS011;12243;42.708;23.310;2023-03-31T07:16:46;5.63;;;2.80;;
16450;SDS011;12243;42.708;23.310;2023-03-31T07:19:14;7.00;;;3.13;;
16450;SDS011;12243;42.708;23.310;2023-03-31T07:21:41;6.30;;;3.50;;
16450;SDS011;12243;42.708;23.310;2023-03-31T07:24:08;4.37;;;3.10;;
16450;SDS011;12243;42.708;23.310;2023-03-31T07:26:35;4.97;;;2.93;;
16450;SDS011;12243;42.708;23.310;2023-03-31T07:29:03;6.13;;;3.43;;
16450;SDS011;12243;42.708;23.310;2023-03-31T07:31:30;3.03;;;2.67;;
16450;SDS011;12243;42.708;23.310;2023-03-31T07:34:01;5.30;;;3.50;;
16450;SDS011;12243;42.708;23.310;2023-03-31T07:36:31;8.97;;;3.83;;
16450;SDS011;12243;42.708;23.310;2023-03-31T07:38:58;6.27;;;3.47;;
16450;SDS011;12243;42.708;23.310;2023-03-31T07:41:25;6.40;;;3.70;;
16450;SDS011;12243;42.708;23.310;2023-03-31T07:43:52;11.60;;;3.90;;
16450;SDS011;12243;42.708;23.310;2023-03-31T07:46:21;3.67;;;3.07;;
16450;SDS011;12243;42.708;23.310;2023-03-31T07:48:50;7.33;;;3.30;;
16450;SDS011;12243;42.708;23.310;2023-03-31T07:51:18;4.87;;;3.20;;
16450;SDS011;12243;42.708;23.310;2023-03-31T07:53:46;5.87;;;3.20;;
16450;SDS011;12243;42.708;23.310;2023-03-31T07:56:16;6.63;;;3.77;;
16450;SDS011;12243;42.708;23.310;2023-03-31T07:58:44;6.70;;;4.17;;
16450;SDS011;12243;42.708;23.310;2023-03-31T08:01:12;8.07;;;4.57;;
16450;SDS011;12243;42.708;23.310;2023-03-31T08:03:42;7.23;;;3.40;;
16450;SDS011;12243;42.708;23.310;2023-03-31T08:06:09;5.90;;;3.30;;
16450;SDS011;12243;42.708;23.310;2023-03-31T08:08:36;6.23;;;2.77;;
16450;SDS011;12243;42.708;23.310;2023-03-31T08:11:07;7.63;;;2.97;;
16450;SDS011;12243;42.708;23.310;2023-03-31T08:13:34;4.00;;;2.83;;
16450;SDS011;12243;42.708;23.310;2023-03-31T08:16:01;4.80;;;3.20;;
16450;SDS011;12243;42.708;23.310;2023-03-31T08:18:28;9.13;;;3.07;;
16450;SDS011;12243;42.708;23.310;2023-03-31T08:20:57;10.43;;;3.83;;
16450;SDS011;12243;42.708;23.310;2023-03-31T08:23:24;6.57;;;3.27;;
16450;SDS011;12243;42.708;23.310;2023-03-31T08:25:50;7.67;;;2.90;;
16450;SDS011;12243;42.708;23.310;2023-03-31T08:28:18;13.63;;;3.60;;
16450;SDS011;12243;42.708;23.310;2023-03-31T08:30:44;8.30;;;2.90;;
16450;SDS011;12243;42.708;23.310;2023-03-31T08:33:12;6.73;;;3.00;;
16450;SDS011;12243;42.708;23.310;2023-03-31T08:35:39;6.10;;;3.20;;
16450;SDS011;12243;42.708;23.310;2023-03-31T08:38:07;10.20;;;2.87;;
16450;SDS011;12243;42.708;23.310;2023-03-31T08:40:34;6.37;;;3.33;;
16450;SDS011;12243;42.708;23.310;2023-03-31T08:43:01;9.60;;;3.47;;
16450;SDS011;12243;42.708;23.310;2023-03-31T08:45:34;7.20;;;3.55;;
16450;SDS011;12243;42.708;23.310;2023-03-31T08:48:05;3.08;;;2.78;;
16450;SDS011;12243;42.708;23.310;2023-03-31T08:50:42;6.07;;;2.45;;
16450;SDS011;12243;42.708;23.310;2023-03-31T08:53:16;6.32;;;2.90;;
16450;SDS011;12243;42.708;23.310;2023-03-31T08:55:52;7.07;;;2.72;;
16450;SDS011;12243;42.708;23.310;2023-03-31T08:58:27;6.85;;;2.88;;
16450;SDS011;12243;42.708;23.310;2023-03-31T09:01:00;7.47;;;2.85;;
16450;SDS011;12243;42.708;23.310;2023-03-31T09:03:34;5.68;;;3.35;;
16450;SDS011;12243;42.708;23.310;2023-03-31T09:06:08;3.35;;;2.38;;
16450;SDS011;12243;42.708;23.310;2023-03-31T09:08:40;4.45;;;2.83;;
16450;SDS011;12243;42.708;23.310;2023-03-31T09:11:12;8.73;;;3.13;;
16450;SDS011;12243;42.708;23.310;2023-03-31T09:16:40;7.15;;;2.47;;
16450;SDS011;12243;42.708;23.310;2023-03-31T09:19:14;11.55;;;4.10;;
16450;SDS011;12243;42.708;23.310;2023-03-31T09:21:45;6.70;;;2.75;;
16450;SDS011;12243;42.708;23.310;2023-03-31T09:24:18;9.25;;;2.65;;
16450;SDS011;12243;42.708;23.310;2023-03-31T09:26:50;7.90;;;2.67;;
16450;SDS011;12243;42.708;23.310;2023-03-31T09:29:21;7.20;;;2.45;;
16450;SDS011;12243;42.708;23.310;2023-03-31T09:31:54;6.27;;;2.23;;
16450;SDS011;12243;42.708;23.310;2023-03-31T09:34:27;4.07;;;2.90;;
16450;SDS011;12243;42.708;23.310;2023-03-31T09:36:57;6.80;;;2.92;;
16450;SDS011;12243;42.708;23.310;2023-03-31T09:39:27;7.07;;;2.92;;
16450;SDS011;12243;42.708;23.310;2023-03-31T09:41:55;3.88;;;2.33;;
16450;SDS011;12243;42.708;23.310;2023-03-31T09:44:27;2.33;;;2.20;;
16450;SDS011;12243;42.708;23.310;2023-03-31T09:47:02;3.10;;;2.42;;
16450;SDS011;12243;42.708;23.310;2023-03-31T09:49:33;5.65;;;2.40;;
16450;SDS011;12243;42.708;23.310;2023-03-31T09:52:03;3.47;;;1.95;;
16450;SDS011;12243;42.708;23.310;2023-03-31T09:54:37;5.10;;;2.65;;
16450;SDS011;12243;42.708;23.310;2023-03-31T09:57:14;8.73;;;2.78;;
16450;SDS011;12243;42.708;23.310;2023-03-31T09:59:49;1.80;;;1.70;;
16450;SDS011;12243;42.708;23.310;2023-03-31T10:02:23;7.65;;;2.83;;
16450;SDS011;12243;42.708;23.310;2023-03-31T10:04:59;4.65;;;2.50;;
16450;SDS011;12243;42.708;23.310;2023-03-31T10:07:26;2.17;;;1.98;;
16450;SDS011;12243;42.708;23.310;2023-03-31T10:09:54;2.53;;;2.13;;
16450;SDS011;12243;42.708;23.310;2023-03-31T10:12:22;3.40;;;2.22;;
16450;SDS011;12243;42.708;23.310;2023-03-31T10:14:52;3.60;;;1.95;;
16450;SDS011;12243;42.708;23.310;2023-03-31T10:17:20;5.03;;;2.42;;
16450;SDS011;12243;42.708;23.310;2023-03-31T10:19:49;3.20;;;1.83;;
16450;SDS011;12243;42.708;23.310;2023-03-31T10:22:26;5.38;;;2.25;;
16450;SDS011;12243;42.708;23.310;2023-03-31T10:25:03;2.13;;;1.98;;
16450;SDS011;12243;42.708;23.310;2023-03-31T10:27:34;4.97;;;2.70;;
16450;SDS011;12243;42.708;23.310;2023-03-31T10:30:07;4.63;;;2.40;;
16450;SDS011;12243;42.708;23.310;2023-03-31T10:32:37;2.40;;;2.00;;
16450;SDS011;12243;42.708;23.310;2023-03-31T10:35:10;2.55;;;2.35;;
16450;SDS011;12243;42.708;23.310;2023-03-31T10:37:47;3.03;;;2.30;;
16450;SDS011;12243;42.708;23.310;2023-03-31T10:40:18;5.60;;;2.33;;
16450;SDS011;12243;42.708;23.310;2023-03-31T10:42:48;3.63;;;2.55;;
16450;SDS011;12243;42.708;23.310;2023-03-31T10:45:26;5.88;;;3.03;;
16450;SDS011;12243;42.708;23.310;2023-03-31T10:47:57;4.30;;;2.35;;
16450;SDS011;12243;42.708;23.310;2023-03-31T10:50:25;6.47;;;2.80;;
16450;SDS011;12243;42.708;23.310;2023-03-31T10:53:00;2.88;;;2.22;;
16450;SDS011;12243;42.708;23.310;2023-03-31T10:55:31;2.50;;;2.13;;
16450;SDS011;12243;42.708;23.310;2023-03-31T10:58:04;4.63;;;2.30;;
16450;SDS011;12243;42.708;23.310;2023-03-31T11:00:40;5.03;;;2.55;;
16450;SDS011;12243;42.708;23.310;2023-03-31T11:06:23;4.65;;;2.35;;
16450;SDS011;12243;42.708;23.310;2023-03-31T11:09:00;6.18;;;2.35;;
16450;SDS011;12243;42.708;23.310;2023-03-31T11:11:55;5.38;;;2.67;;
16450;SDS011;12243;42.708;23.310;2023-03-31T11:14:32;8.10;;;2.75;;
16450;SDS011;12243;42.708;23.310;2023-03-31T11:17:08;6.00;;;2.85;;
16450;SDS011;12243;42.708;23.310;2023-03-31T11:19:47;4.03;;;2.38;;
16450;SDS011;12243;42.708;23.310;2023-03-31T11:22:24;3.10;;;2.28;;
16450;SDS011;12243;42.708;23.310;2023-03-31T11:25:09;3.78;;;2.60;;
16450;SDS011;12243;42.708;23.310;2023-03-31T11:27:52;5.20;;;2.65;;
16450;SDS011;12243;42.708;23.310;2023-03-31T11:30:29;4.60;;;1.90;;
16450;SDS011;12243;42.708;23.310;2023-03-31T11:33:04;6.38;;;2.50;;
16450;SDS011;12243;42.708;23.310;2023-03-31T11:35:52;6.35;;;2.58;;
16450;SDS011;12243;42.708;23.310;2023-03-31T11:41:18;5.85;;;2.28;;
16450;SDS011;12243;42.708;23.310;2023-03-31T11:43:49;9.07;;;2.80;;
16450;SDS011;12243;42.708;23.310;2023-03-31T11:46:19;4.20;;;2.22;;
16450;SDS011;12243;42.708;23.310;2023-03-31T11:48:50;7.88;;;2.80;;
16450;SDS011;12243;42.708;23.310;2023-03-31T11:51:23;6.22;;;2.80;;
16450;SDS011;12243;42.708;23.310;2023-03-31T11:53:54;8.57;;;2.53;;
16450;SDS011;12243;42.708;23.310;2023-03-31T11:56:26;5.30;;;2.38;;
16450;SDS011;12243;42.708;23.310;2023-03-31T11:59:00;8.80;;;2.58;;
16450;SDS011;12243;42.708;23.310;2023-03-31T12:01:31;3.70;;;2.40;;
16450;SDS011;12243;42.708;23.310;2023-03-31T12:04:12;5.55;;;2.22;;
16450;SDS011;12243;42.708;23.310;2023-03-31T12:06:54;5.22;;;2.10;;
16450;SDS011;12243;42.708;23.310;2023-03-31T12:09:26;4.78;;;2.05;;
16450;SDS011;12243;42.708;23.310;2023-03-31T12:12:00;5.07;;;2.05;;
16450;SDS011;12243;42.708;23.310;2023-03-31T12:14:33;2.53;;;2.33;;
16450;SDS011;12243;42.708;23.310;2023-03-31T12:17:09;3.90;;;2.33;;
16450;SDS011;12243;42.708;23.310;2023-03-31T12:19:41;4.32;;;1.90;;
16450;SDS011;12243;42.708;23.310;2023-03-31T12:22:14;6.85;;;2.15;;
16450;SDS011;12243;42.708;23.310;2023-03-31T12:24:45;5.32;;;2.22;;
16450;SDS011;12243;42.708;23.310;2023-03-31T12:27:13;4.28;;;2.20;;
16450;SDS011;12243;42.708;23.310;2023-03-31T12:29:45;3.42;;;1.95;;
16450;SDS011;12243;42.708;23.310;2023-03-31T12:32:21;4.15;;;2.10;;
16450;SDS011;12243;42.708;23.310;2023-03-31T12:34:53;3.83;;;2.50;;
16450;SDS011;12243;42.708;23.310;2023-03-31T12:37:38;3.25;;;2.20;;
16450;SDS011;12243;42.708;23.310;2023-03-31T12:40:31;2.38;;;2.08;;
16450;SDS011;12243;42.708;23.310;2023-03-31T12:43:07;5.43;;;2.50;;
16450;SDS011;12243;42.708;23.310;2023-03-31T12:45:58;2.53;;;1.83;;
16450;SDS011;12243;42.708;23.310;2023-03-31T12:48:38;6.82;;;2.38;;
16450;SDS011;12243;42.708;23.310;2023-03-31T12:51:19;2.42;;;2.00;;
16450;SDS011;12243;42.708;23.310;2023-03-31T12:54:18;5.28;;;2.42;;
16450;SDS011;12243;42.708;23.310;2023-03-31T12:57:02;4.40;;;2.13;;
16450;SDS011;12243;42.708;23.310;2023-03-31T12:59:39;5.20;;;2.42;;
16450;SDS011;12243;42.708;23.310;2023-03-31T13:02:20;5.78;;;2.45;;
16450;SDS011;12243;42.708;23.310;2023-03-31T13:04:49;6.35;;;2.08;;
16450;SDS011;12243;42.708;23.310;2023-03-31T13:10:22;4.28;;;2.58;;
16450;SDS011;12243;42.708;23.310;2023-03-31T13:13:00;3.45;;;2.08;;
16450;SDS011;12243;42.708;23.310;2023-03-31T13:15:29;4.78;;;2.28;;
16450;SDS011;12243;42.708;23.310;2023-03-31T13:17:59;3.47;;;1.77;;
16450;SDS011;12243;42.708;23.310;2023-03-31T13:20:31;9.30;;;2.10;;
16450;SDS011;12243;42.708;23.310;2023-03-31T13:23:01;3.00;;;2.10;;
16450;SDS011;12243;42.708;23.310;2023-03-31T13:25:38;4.82;;;2.30;;
16450;SDS011;12243;42.708;23.310;2023-03-31T13:28:10;7.35;;;1.90;;
16450;SDS011;12243;42.708;23.310;2023-03-31T13:30:45;4.75;;;1.80;;
16450;SDS011;12243;42.708;23.310;2023-03-31T13:33:17;6.35;;;2.17;;
16450;SDS011;12243;42.708;23.310;2023-03-31T13:35:48;3.58;;;2.10;;
16450;SDS011;12243;42.708;23.310;2023-03-31T13:38:21;5.40;;;2.28;;
16450;SDS011;12243;42.708;23.310;2023-03-31T13:41:04;3.53;;;2.42;;
16450;SDS011;12243;42.708;23.310;2023-03-31T13:44:01;3.72;;;2.35;;
16450;SDS011;12243;42.708;23.310;2023-03-31T13:46:58;3.10;;;2.35;;
16450;SDS011;12243;42.708;23.310;2023-03-31T13:49:48;3.85;;;2.00;;
16450;SDS011;12243;42.708;23.310;2023-03-31T13:52:30;4.68;;;2.33;;
16450;SDS011;12243;42.708;23.310;2023-03-31T13:58:43;6.20;;;2.20;;
16450;SDS011;12243;42.708;23.310;2023-03-31T14:07:43;9.07;;;2.50;;
16450;SDS011;12243;42.708;23.310;2023-03-31T14:10:20;4.75;;;1.90;;
16450;SDS011;12243;42.708;23.310;2023-03-31T14:13:03;5.72;;;2.53;;
16450;SDS011;12243;42.708;23.310;2023-03-31T14:15:35;3.55;;;2.30;;
16450;SDS011;12243;42.708;23.310;2023-03-31T14:18:04;3.60;;;2.17;;
16450;SDS011;12243;42.708;23.310;2023-03-31T14:20:36;5.60;;;2.05;;
16450;SDS011;12243;42.708;23.310;2023-03-31T14:23:16;7.63;;;2.45;;
16450;SDS011;12243;42.708;23.310;2023-03-31T14:25:52;6.70;;;2.63;;
16450;SDS011;12243;42.708;23.310;2023-03-31T14:28:31;3.97;;;2.33;;
16450;SDS011;12243;42.708;23.310;2023-03-31T14:31:18;5.10;;;2.70;;
16450;SDS011;12243;42.708;23.310;2023-03-31T14:33:56;5.53;;;2.85;;
16450;SDS011;12243;42.708;23.310;2023-03-31T14:36:39;5.18;;;2.38;;
16450;SDS011;12243;42.708;23.310;2023-03-31T14:39:15;3.75;;;2.45;;
16450;SDS011;12243;42.708;23.310;2023-03-31T14:41:49;5.05;;;2.85;;
16450;SDS011;12243;42.708;23.310;2023-03-31T14:44:17;5.75;;;2.15;;
16450;SDS011;12243;42.708;23.310;2023-03-31T14:46:45;7.60;;;2.40;;
16450;SDS011;12243;42.708;23.310;2023-03-31T14:49:17;4.22;;;2.20;;
16450;SDS011;12243;42.708;23.310;2023-03-31T14:51:50;3.42;;;2.10;;
16450;SDS011;12243;42.708;23.310;2023-03-31T14:54:18;5.38;;;2.47;;
16450;SDS011;12243;42.708;23.310;2023-03-31T14:56:47;3.80;;;2.58;;
16450;SDS011;12243;42.708;23.310;2023-03-31T14:59:19;6.03;;;2.58;;
16450;SDS011;12243;42.708;23.310;2023-03-31T15:01:49;4.60;;;2.30;;
16450;SDS011;12243;42.708;23.310;2023-03-31T15:04:19;6.35;;;2.33;;
16450;SDS011;12243;42.708;23.310;2023-03-31T15:06:49;3.35;;;2.25;;
16450;SDS011;12243;42.708;23.310;2023-03-31T15:09:19;6.25;;;3.15;;
16450;SDS011;12243;42.708;23.310;2023-03-31T15:11:52;7.75;;;3.13;;
16450;SDS011;12243;42.708;23.310;2023-03-31T15:14:22;7.57;;;2.53;;
16450;SDS011;12243;42.708;23.310;2023-03-31T15:16:53;7.07;;;3.40;;
16450;SDS011;12243;42.708;23.310;2023-03-31T15:19:21;4.07;;;2.70;;
16450;SDS011;12243;42.708;23.310;2023-03-31T15:21:54;3.03;;;2.72;;
16450;SDS011;12243;42.708;23.310;2023-03-31T15:24:26;3.97;;;2.95;;
16450;SDS011;12243;42.708;23.310;2023-03-31T15:26:54;11.00;;;2.90;;
16450;SDS011;12243;42.708;23.310;2023-03-31T15:29:25;5.68;;;3.15;;
16450;SDS011;12243;42.708;23.310;2023-03-31T15:31:59;5.13;;;2.40;;
16450;SDS011;12243;42.708;23.310;2023-03-31T15:34:28;7.82;;;2.72;;